createdAt,value
2022-08-14T00:02:17.558Z,4.13
2022-08-14T00:04:45.662Z,4.80
2022-08-14T00:07:14.783Z,4.17
2022-08-14T00:09:56.027Z,3.83
2022-08-14T00:12:33.792Z,4.70
2022-08-14T00:15:11.995Z,5.10
2022-08-14T00:17:48.299Z,4.23
2022-08-14T00:21:00.799Z,3.73
2022-08-14T00:23:29.359Z,4.00
2022-08-14T00:26:05.856Z,4.03
2022-08-14T00:28:36.091Z,4.13
2022-08-14T00:31:07.898Z,4.40
2022-08-14T00:33:39.371Z,4.10
2022-08-14T00:36:36.194Z,4.00
2022-08-14T00:39:09.552Z,4.30
2022-08-14T00:41:39.194Z,4.13
2022-08-14T00:44:08.194Z,4.40
2022-08-14T00:46:37.484Z,5.07
2022-08-14T00:49:08.168Z,4.00
2022-08-14T00:51:41.141Z,4.20
2022-08-14T00:54:16.908Z,4.47
2022-08-14T00:56:51.642Z,4.57
2022-08-14T00:59:24.937Z,4.37
2022-08-14T01:01:55.676Z,4.67
2022-08-14T01:04:38.360Z,4.50
2022-08-14T01:07:21.295Z,4.00
2022-08-14T01:09:51.471Z,4.00
2022-08-14T01:12:27.218Z,4.30
2022-08-14T01:14:59.149Z,4.87
2022-08-14T01:17:50.652Z,4.50
2022-08-14T01:20:40.858Z,4.27
2022-08-14T01:23:15.593Z,4.57
2022-08-14T01:25:45.958Z,4.40
2022-08-14T01:28:47.399Z,4.80
2022-08-14T01:31:05.932Z,4.40
2022-08-14T01:33:39.607Z,4.50
2022-08-14T01:36:23.819Z,4.40
2022-08-14T01:38:58.109Z,4.47
2022-08-14T01:41:30.133Z,4.70
2022-08-14T01:44:02.293Z,4.57
2022-08-14T01:46:33.486Z,4.67
2022-08-14T01:49:07.749Z,4.67
2022-08-14T01:51:37.387Z,4.07
2022-08-14T01:54:09.593Z,4.60
2022-08-14T01:56:39.752Z,4.77
2022-08-14T01:59:10.215Z,4.43
2022-08-14T02:01:55.891Z,4.90
2022-08-14T02:04:55.872Z,4.23
2022-08-14T02:07:34.056Z,5.17
2022-08-14T02:10:13.122Z,4.70
2022-08-14T02:12:44.257Z,4.50
2022-08-14T02:15:13.010Z,4.40
2022-08-14T02:17:43.546Z,4.63
2022-08-14T02:20:12.274Z,4.50
2022-08-14T02:22:47.354Z,4.10
2022-08-14T02:25:17.765Z,4.67
2022-08-14T02:28:25.729Z,4.70
2022-08-14T02:30:34.825Z,4.73
2022-08-14T02:33:07.420Z,4.70
2022-08-14T02:35:40.723Z,4.80
2022-08-14T02:38:11.565Z,4.60
2022-08-14T02:40:41.402Z,4.97
2022-08-14T02:43:13.827Z,4.73
2022-08-14T02:45:45.143Z,4.57
2022-08-14T02:49:04.109Z,4.83
2022-08-14T02:51:30.972Z,4.60
2022-08-14T02:54:01.558Z,4.77
2022-08-14T02:57:13.507Z,4.43
2022-08-14T02:59:19.351Z,4.50
2022-08-14T03:01:50.398Z,4.50
2022-08-14T03:04:23.416Z,4.70
2022-08-14T03:06:57.318Z,5.23
2022-08-14T03:10:26.629Z,5.10
2022-08-14T03:12:57.290Z,5.07
2022-08-14T03:15:25.684Z,5.00
2022-08-14T03:17:57.690Z,5.37
2022-08-14T03:20:28.758Z,5.47
2022-08-14T03:23:03.006Z,5.20
2022-08-14T03:25:33.418Z,4.80
2022-08-14T03:28:05.356Z,5.10
2022-08-14T03:30:39.738Z,4.97
2022-08-14T03:33:11.075Z,4.83
2022-08-14T03:35:59.848Z,4.90
2022-08-14T03:39:12.749Z,4.40
2022-08-14T03:41:21.315Z,4.57
2022-08-14T03:43:57.770Z,4.40
2022-08-14T03:46:52.762Z,4.90
2022-08-14T03:49:24.315Z,4.70
2022-08-14T03:52:00.794Z,4.73
2022-08-14T03:54:30.512Z,5.30
2022-08-14T03:57:02.693Z,4.80
2022-08-14T03:59:33.153Z,4.93
2022-08-14T04:02:04.714Z,5.50
2022-08-14T04:04:53.365Z,5.53
2022-08-14T04:07:22.494Z,5.00
2022-08-14T04:09:50.627Z,5.53
2022-08-14T04:12:26.478Z,5.40
2022-08-14T04:14:56.451Z,6.23
2022-08-14T04:17:24.425Z,5.50
2022-08-14T04:19:54.116Z,5.90
2022-08-14T04:22:22.217Z,5.83
2022-08-14T04:24:50.516Z,5.60
2022-08-14T04:27:19.060Z,5.30
2022-08-14T04:29:47.122Z,4.90
2022-08-14T04:33:02.346Z,5.17
2022-08-14T04:35:07.537Z,6.20
2022-08-14T04:37:56.002Z,5.60
2022-08-14T04:40:42.159Z,5.77
2022-08-14T04:43:38.463Z,5.60
2022-08-14T04:46:10.621Z,6.60
2022-08-14T04:49:00.423Z,6.53
2022-08-14T04:51:30.100Z,6.03
2022-08-14T04:54:05.835Z,6.47
2022-08-14T04:56:34.786Z,6.17
2022-08-14T04:59:09.397Z,6.60
2022-08-14T05:01:39.961Z,6.40
2022-08-14T05:04:16.245Z,6.20
2022-08-14T05:06:44.556Z,6.10
2022-08-14T05:09:14.319Z,5.97
2022-08-14T05:11:44.245Z,5.90
2022-08-14T05:14:33.736Z,6.60
2022-08-14T05:17:02.026Z,6.10
2022-08-14T05:19:32.457Z,6.03
2022-08-14T05:22:17.330Z,6.87
2022-08-14T05:24:50.491Z,6.47
2022-08-14T05:27:22.969Z,5.80
2022-08-14T05:29:55.061Z,6.20
2022-08-14T05:32:27.667Z,6.97
2022-08-14T05:34:59.117Z,6.20
2022-08-14T05:37:28.468Z,5.17
2022-08-14T05:40:00.555Z,6.33
2022-08-14T05:42:32.188Z,6.40
2022-08-14T05:45:04.326Z,7.20
2022-08-14T05:47:39.023Z,6.80
2022-08-14T05:50:17.243Z,6.57
2022-08-14T05:52:47.424Z,6.87
2022-08-14T05:55:15.615Z,6.67
2022-08-14T05:57:49.686Z,6.97
2022-08-14T06:00:25.015Z,7.33
2022-08-14T06:02:58.369Z,6.87
2022-08-14T06:05:30.166Z,6.87
2022-08-14T06:07:59.197Z,6.43
2022-08-14T06:10:28.682Z,6.90
2022-08-14T06:12:58.235Z,6.40
2022-08-14T06:15:29.951Z,6.70
2022-08-14T06:18:00.349Z,6.27
2022-08-14T06:20:30.539Z,6.73
2022-08-14T06:22:59.142Z,6.27
2022-08-14T06:25:27.957Z,6.40
2022-08-14T06:27:55.987Z,6.30
2022-08-14T06:30:41.905Z,6.20
2022-08-14T06:33:16.155Z,5.87
2022-08-14T06:35:48.470Z,5.40
2022-08-14T06:38:18.503Z,5.93
2022-08-14T06:40:47.233Z,6.10
2022-08-14T06:43:16.970Z,5.97
2022-08-14T06:45:50.114Z,6.00
2022-08-14T06:48:23.725Z,5.87
2022-08-14T06:50:54.674Z,6.83
2022-08-14T06:53:27.640Z,5.90
2022-08-14T06:56:00.870Z,6.03
2022-08-14T06:58:31.883Z,5.30
2022-08-14T07:01:25.030Z,5.10
2022-08-14T07:04:25.806Z,5.60
2022-08-14T07:06:58.959Z,6.07
2022-08-14T07:09:43.487Z,5.63
2022-08-14T07:12:54.223Z,5.43
2022-08-14T07:15:01.839Z,5.47
2022-08-14T07:17:31.917Z,5.27
2022-08-14T07:20:02.253Z,5.70
2022-08-14T07:22:33.067Z,5.83
2022-08-14T07:25:19.902Z,4.70
2022-08-14T07:27:48.203Z,4.70
2022-08-14T07:30:34.344Z,5.20
2022-08-14T07:33:03.654Z,4.60
2022-08-14T07:35:42.951Z,4.53
2022-08-14T07:38:23.326Z,4.73
2022-08-14T07:40:53.312Z,4.87
2022-08-14T07:43:21.746Z,5.47
2022-08-14T07:45:51.325Z,4.80
2022-08-14T07:48:24.868Z,5.00
2022-08-14T07:50:59.462Z,5.50
2022-08-14T07:53:34.067Z,5.17
2022-08-14T07:56:21.629Z,4.70
2022-08-14T07:58:53.429Z,5.17
2022-08-14T08:01:26.747Z,5.30
2022-08-14T08:04:00.298Z,5.20
2022-08-14T08:06:29.986Z,5.50
2022-08-14T08:09:02.931Z,4.82
2022-08-14T08:11:34.819Z,5.00
2022-08-14T08:14:10.665Z,5.23
2022-08-14T08:16:46.482Z,4.80
2022-08-14T08:19:18.917Z,5.00
2022-08-14T08:21:47.649Z,4.53
2022-08-14T08:24:20.034Z,5.17
2022-08-14T08:26:50.327Z,5.23
2022-08-14T08:29:28.543Z,4.70
2022-08-14T08:32:01.582Z,4.97
2022-08-14T08:34:45.980Z,5.07
2022-08-14T08:37:15.219Z,5.40
2022-08-14T08:40:01.884Z,5.37
2022-08-14T08:42:52.077Z,5.10
2022-08-14T08:45:22.575Z,5.27
2022-08-14T08:47:52.398Z,4.80
2022-08-14T08:50:31.655Z,5.00
2022-08-14T08:53:02.039Z,5.33
2022-08-14T08:55:34.192Z,4.90
2022-08-14T08:58:05.267Z,4.87
2022-08-14T09:00:36.137Z,4.93
2022-08-14T09:03:10.145Z,4.80
2022-08-14T09:05:40.686Z,4.60
2022-08-14T09:08:30.834Z,4.60
2022-08-14T09:11:19.818Z,4.33
2022-08-14T09:13:51.380Z,4.43
2022-08-14T09:16:22.036Z,4.60
2022-08-14T09:18:53.175Z,4.50
2022-08-14T09:21:24.047Z,4.27
2022-08-14T09:24:28.705Z,4.30
2022-08-14T09:26:49.184Z,4.40
2022-08-14T09:29:19.820Z,3.97
2022-08-14T09:31:55.181Z,3.93
2022-08-14T09:34:36.801Z,3.87
2022-08-14T09:37:20.189Z,4.00
2022-08-14T09:39:57.493Z,4.30
2022-08-14T09:42:36.848Z,3.70
2022-08-14T09:45:18.920Z,4.27
2022-08-14T09:47:51.818Z,3.70
2022-08-14T09:50:26.190Z,3.90
2022-08-14T09:52:58.226Z,4.10
2022-08-14T09:55:28.262Z,3.80
2022-08-14T09:58:15.107Z,3.83
2022-08-14T10:00:49.121Z,4.20
2022-08-14T10:03:30.258Z,3.53
2022-08-14T10:06:09.915Z,3.80
2022-08-14T10:08:50.928Z,3.43
2022-08-14T10:11:23.614Z,4.00
2022-08-14T10:13:55.896Z,3.50
2022-08-14T10:16:27.227Z,3.73
2022-08-14T10:19:09.613Z,3.80
2022-08-14T10:23:11.298Z,3.43
2022-08-14T10:24:36.180Z,3.67
2022-08-14T10:27:05.553Z,3.70
2022-08-14T10:29:37.196Z,3.50
2022-08-14T10:32:17.614Z,3.53
2022-08-14T10:34:52.565Z,4.10
2022-08-14T10:37:23.653Z,3.43
2022-08-14T10:40:05.167Z,3.50
2022-08-14T10:42:39.502Z,3.43
2022-08-14T10:45:21.711Z,3.53
2022-08-14T10:48:07.682Z,3.77
2022-08-14T10:50:41.650Z,3.40
2022-08-14T10:53:10.643Z,3.80
2022-08-14T10:55:45.771Z,3.60
2022-08-14T10:58:15.022Z,3.33
2022-08-14T11:00:57.114Z,3.70
2022-08-14T11:03:26.783Z,3.83
2022-08-14T11:06:15.293Z,3.53
2022-08-14T11:08:45.667Z,3.80
2022-08-14T11:11:14.001Z,3.40
2022-08-14T11:13:46.314Z,3.40
2022-08-14T11:16:16.563Z,3.80
2022-08-14T11:18:46.482Z,3.43
2022-08-14T11:21:23.229Z,3.50
2022-08-14T11:23:53.785Z,2.90
2022-08-14T11:26:28.003Z,3.90
2022-08-14T11:28:59.849Z,3.27
2022-08-14T11:31:35.608Z,3.40
2022-08-14T11:34:29.705Z,2.93
2022-08-14T11:37:04.466Z,3.27
2022-08-14T11:39:45.386Z,3.33
2022-08-14T11:42:57.191Z,3.87
2022-08-14T11:45:17.231Z,3.20
2022-08-14T11:48:13.215Z,3.60
2022-08-14T11:50:38.179Z,3.40
2022-08-14T11:53:07.195Z,3.20
2022-08-14T11:55:39.123Z,3.60
2022-08-14T11:58:10.500Z,3.63
2022-08-14T12:00:47.872Z,3.20
2022-08-14T12:03:22.752Z,3.87
2022-08-14T12:06:28.029Z,3.50
2022-08-14T12:09:00.232Z,3.47
2022-08-14T12:11:43.146Z,3.70
2022-08-14T12:14:13.305Z,3.10
2022-08-14T12:17:02.435Z,3.60
2022-08-14T12:19:33.446Z,3.47
2022-08-14T12:22:03.549Z,3.40
2022-08-14T12:24:36.657Z,3.60
2022-08-14T12:27:07.924Z,2.93
2022-08-14T12:29:37.621Z,3.60
2022-08-14T12:32:09.108Z,3.00
2022-08-14T12:34:45.141Z,3.47
2022-08-14T12:37:13.311Z,3.10
2022-08-14T12:39:41.362Z,2.90
2022-08-14T12:42:11.893Z,3.20
2022-08-14T12:44:59.905Z,3.33
2022-08-14T12:47:35.615Z,3.50
2022-08-14T12:50:05.519Z,3.33
2022-08-14T12:52:45.383Z,3.20
2022-08-14T12:55:32.563Z,3.00
2022-08-14T12:58:35.053Z,3.23
2022-08-14T13:01:16.989Z,3.60
2022-08-14T13:03:51.942Z,3.93
2022-08-14T13:06:24.971Z,3.50
2022-08-14T13:08:53.834Z,3.70
2022-08-14T13:11:31.265Z,3.90
2022-08-14T13:14:00.735Z,3.67
2022-08-14T13:16:33.602Z,3.90
2022-08-14T13:19:10.956Z,4.17
2022-08-14T13:22:05.367Z,4.17
2022-08-14T13:24:29.519Z,3.87
2022-08-14T13:27:04.352Z,4.10
2022-08-14T13:29:37.643Z,3.53
2022-08-14T13:32:09.315Z,3.80
2022-08-14T13:34:38.299Z,3.50
2022-08-14T13:37:07.864Z,4.40
2022-08-14T13:39:36.103Z,3.77
2022-08-14T13:42:08.761Z,3.87
2022-08-14T13:44:42.773Z,3.73
2022-08-14T13:47:12.140Z,4.00
2022-08-14T13:49:57.040Z,3.83
2022-08-14T13:52:52.254Z,3.53
2022-08-14T13:55:19.751Z,3.70
2022-08-14T13:57:49.973Z,3.70
2022-08-14T14:00:35.706Z,4.23
2022-08-14T14:03:20.726Z,3.73
2022-08-14T14:05:54.261Z,3.90
2022-08-14T14:08:45.712Z,4.20
2022-08-14T14:11:16.082Z,4.53
2022-08-14T14:13:46.322Z,4.40
2022-08-14T14:16:26.610Z,4.30
2022-08-14T14:19:09.187Z,4.13
2022-08-14T14:21:40.977Z,3.90
2022-08-14T14:24:14.929Z,3.50
2022-08-14T14:26:48.010Z,4.43
2022-08-14T14:29:23.954Z,4.10
2022-08-14T14:31:55.402Z,4.00
2022-08-14T14:34:30.123Z,4.20
2022-08-14T14:37:04.690Z,3.93
2022-08-14T14:39:38.132Z,3.50
2022-08-14T14:42:32.340Z,4.23
2022-08-14T14:45:05.663Z,3.83
2022-08-14T14:47:34.494Z,3.70
2022-08-14T14:50:03.727Z,3.50
2022-08-14T14:52:32.460Z,3.70
2022-08-14T14:55:08.138Z,3.47
2022-08-14T14:57:36.757Z,3.63
2022-08-14T15:00:08.846Z,3.83
2022-08-14T15:02:43.006Z,3.90
2022-08-14T15:05:13.193Z,3.47
2022-08-14T15:07:42.184Z,3.47
2022-08-14T15:10:27.055Z,4.20
2022-08-14T15:13:03.444Z,4.07
2022-08-14T15:15:33.057Z,4.47
2022-08-14T15:18:01.588Z,4.00
2022-08-14T15:20:31.227Z,3.78
2022-08-14T15:23:00.795Z,3.78
2022-08-14T15:25:31.837Z,3.80
2022-08-14T15:28:00.889Z,3.58
2022-08-14T15:30:32.769Z,3.78
2022-08-14T15:33:01.155Z,3.50
2022-08-14T15:35:34.219Z,3.47
2022-08-14T15:38:07.829Z,3.90
2022-08-14T15:40:40.938Z,4.05
2022-08-14T15:43:10.862Z,3.95
2022-08-14T15:45:42.173Z,3.42
2022-08-14T15:48:14.025Z,3.80
2022-08-14T15:50:51.832Z,3.47
2022-08-14T15:53:22.448Z,3.78
2022-08-14T15:55:53.048Z,3.15
2022-08-14T15:58:21.812Z,4.10
2022-08-14T16:01:07.846Z,3.85
2022-08-14T16:03:40.865Z,4.07
2022-08-14T16:06:17.663Z,4.32
2022-08-14T16:08:50.036Z,3.83
2022-08-14T16:11:24.092Z,3.28
2022-08-14T16:13:52.730Z,4.15
2022-08-14T16:16:47.138Z,3.90
2022-08-14T16:19:19.600Z,3.78
2022-08-14T16:22:02.752Z,3.50
2022-08-14T16:25:02.765Z,3.88
2022-08-14T16:27:38.951Z,3.60
2022-08-14T16:30:25.140Z,3.80
2022-08-14T16:32:57.313Z,3.60
2022-08-14T16:35:42.765Z,3.67
2022-08-14T16:38:22.291Z,3.95
2022-08-14T16:41:21.989Z,3.30
2022-08-14T16:43:59.166Z,3.43
2022-08-14T16:46:34.611Z,3.67
2022-08-14T16:49:05.379Z,3.70
2022-08-14T16:51:38.484Z,3.45
2022-08-14T16:54:20.644Z,3.53
2022-08-14T16:57:13.362Z,3.80
2022-08-14T16:59:52.468Z,3.10
2022-08-14T17:02:35.310Z,3.57
2022-08-14T17:05:21.493Z,3.40
2022-08-14T17:08:32.532Z,3.80
2022-08-14T17:11:10.880Z,3.30
2022-08-14T17:13:59.738Z,3.40
2022-08-14T17:16:35.546Z,3.43
2022-08-14T17:19:05.532Z,3.80
2022-08-14T17:21:38.059Z,3.10
2022-08-14T17:24:57.895Z,3.70
2022-08-14T17:26:59.864Z,3.77
2022-08-14T17:29:31.305Z,2.90
2022-08-14T17:32:03.479Z,3.20
2022-08-14T17:34:46.437Z,3.33
2022-08-14T17:37:25.664Z,3.40
2022-08-14T17:40:13.795Z,3.20
2022-08-14T17:42:53.649Z,3.20
2022-08-14T17:45:26.803Z,3.33
2022-08-14T17:47:59.550Z,3.40
2022-08-14T17:51:00.121Z,3.70
2022-08-14T17:53:30.382Z,3.70
2022-08-14T17:56:01.475Z,3.60
2022-08-14T17:58:41.663Z,3.97
2022-08-14T18:01:14.181Z,4.13
2022-08-14T18:03:53.235Z,5.03
2022-08-14T18:06:38.453Z,6.40
2022-08-14T18:09:26.061Z,13.37
2022-08-14T18:11:57.028Z,10.50
2022-08-14T18:14:32.292Z,9.33
2022-08-14T18:17:02.407Z,4.20
2022-08-14T18:19:35.182Z,5.00
2022-08-14T18:22:05.786Z,4.13
2022-08-14T18:24:54.128Z,3.57
2022-08-14T18:27:25.228Z,4.20
2022-08-14T18:29:58.646Z,4.10
2022-08-14T18:32:54.891Z,4.33
2022-08-14T18:35:45.925Z,3.90
2022-08-14T18:38:26.351Z,3.93
2022-08-14T18:41:36.217Z,4.23
2022-08-14T18:44:10.521Z,3.90
2022-08-14T18:47:20.481Z,4.37
2022-08-14T18:50:03.803Z,3.50
2022-08-14T18:52:54.170Z,3.80
2022-08-14T18:55:54.112Z,3.87
2022-08-14T18:58:31.106Z,4.53
2022-08-14T19:01:01.261Z,4.10
2022-08-14T19:03:53.399Z,4.40
2022-08-14T19:06:38.315Z,4.57
2022-08-14T19:09:07.809Z,5.40
2022-08-14T19:11:50.143Z,4.90
2022-08-14T19:14:47.599Z,5.40
2022-08-14T19:18:10.776Z,5.30
2022-08-14T19:20:47.580Z,4.77
2022-08-14T19:23:18.301Z,4.97
2022-08-14T19:25:55.627Z,5.43
2022-08-14T19:28:31.022Z,5.20
2022-08-14T19:31:41.954Z,5.30
2022-08-14T19:34:30.075Z,5.23
2022-08-14T19:37:10.131Z,5.60
2022-08-14T19:39:49.260Z,5.10
2022-08-14T19:42:28.328Z,5.00
2022-08-14T19:44:58.899Z,5.47
2022-08-14T19:47:38.557Z,5.13
2022-08-14T19:50:39.081Z,5.37
2022-08-14T19:53:16.569Z,4.60
2022-08-14T19:55:59.027Z,4.80
2022-08-14T19:58:54.695Z,4.10
2022-08-14T20:01:27.247Z,5.00
2022-08-14T20:04:46.938Z,5.37
2022-08-14T20:07:04.434Z,5.70
2022-08-14T20:11:05.638Z,5.33
2022-08-14T20:12:36.722Z,4.97
2022-08-14T20:15:27.976Z,5.50
2022-08-14T20:18:38.997Z,4.70
2022-08-14T20:21:05.462Z,5.00
2022-08-14T20:23:38.454Z,5.27
2022-08-14T20:26:30.512Z,4.90
2022-08-14T20:29:05.307Z,5.30
2022-08-14T20:31:37.769Z,5.90
2022-08-14T20:34:07.920Z,5.47
2022-08-14T20:36:47.434Z,5.27
2022-08-14T20:39:16.814Z,5.93
2022-08-14T20:41:49.049Z,5.90
2022-08-14T20:44:40.726Z,5.00
2022-08-14T20:47:15.085Z,5.07
2022-08-14T20:49:43.076Z,5.60
2022-08-14T20:52:19.055Z,7.70
2022-08-14T20:54:51.854Z,7.50
2022-08-14T20:57:20.463Z,7.30
2022-08-14T20:59:53.071Z,7.10
2022-08-14T21:02:46.252Z,6.40
2022-08-14T21:05:22.412Z,5.90
2022-08-14T21:08:10.039Z,5.67
2022-08-14T21:10:50.605Z,5.60
2022-08-14T21:13:27.319Z,5.80
2022-08-14T21:16:34.711Z,5.80
2022-08-14T21:19:00.016Z,6.20
2022-08-14T21:21:41.743Z,6.67
2022-08-14T21:24:39.867Z,5.57
2022-08-14T21:27:12.479Z,5.77
2022-08-14T21:29:54.002Z,5.57
2022-08-14T21:32:35.005Z,6.67
2022-08-14T21:35:08.283Z,5.87
2022-08-14T21:37:45.114Z,6.30
2022-08-14T21:40:40.981Z,5.33
2022-08-14T21:43:03.355Z,6.00
2022-08-14T21:45:35.256Z,6.17
2022-08-14T21:48:10.858Z,6.17
2022-08-14T21:51:01.170Z,5.90
2022-08-14T21:53:34.087Z,6.30
2022-08-14T21:56:03.713Z,6.33
2022-08-14T21:58:53.150Z,6.30
2022-08-14T22:01:20.407Z,6.80
2022-08-14T22:03:55.132Z,6.20
2022-08-14T22:06:28.809Z,6.33
2022-08-14T22:08:58.145Z,5.60
2022-08-14T22:11:27.293Z,6.40
2022-08-14T22:14:02.374Z,5.97
2022-08-14T22:17:01.621Z,7.30
2022-08-14T22:19:47.297Z,6.53
2022-08-14T22:22:26.137Z,7.03
2022-08-14T22:24:59.986Z,6.40
2022-08-14T22:27:32.379Z,6.30
2022-08-14T22:30:02.266Z,5.70
2022-08-14T22:32:56.824Z,5.70
2022-08-14T22:35:23.506Z,5.90
2022-08-14T22:38:35.986Z,6.20
2022-08-14T22:41:07.528Z,6.13
2022-08-14T22:43:35.122Z,6.10
2022-08-14T22:46:06.245Z,6.10
2022-08-14T22:48:44.497Z,6.50
2022-08-14T22:51:13.478Z,7.00
2022-08-14T22:53:43.947Z,6.03
2022-08-14T22:56:20.606Z,6.27
2022-08-14T22:58:49.948Z,6.20
2022-08-14T23:01:25.465Z,6.20
2022-08-14T23:04:35.033Z,6.63
2022-08-14T23:07:04.673Z,6.50
2022-08-14T23:09:38.087Z,6.57
2022-08-14T23:12:27.682Z,6.97
2022-08-14T23:14:56.355Z,6.30
2022-08-14T23:17:24.349Z,7.30
2022-08-14T23:19:56.196Z,6.80
2022-08-14T23:22:26.369Z,6.70
2022-08-14T23:24:57.784Z,7.13
2022-08-14T23:28:02.724Z,7.73
2022-08-14T23:30:31.920Z,7.67
2022-08-14T23:33:03.681Z,6.20
2022-08-14T23:35:33.281Z,7.50
2022-08-14T23:38:02.887Z,7.43
2022-08-14T23:40:32.322Z,7.33
2022-08-14T23:43:07.090Z,6.87
2022-08-14T23:45:39.311Z,6.70
2022-08-14T23:48:09.986Z,7.23
2022-08-14T23:50:41.606Z,6.47
2022-08-14T23:53:28.604Z,6.90
2022-08-14T23:56:09.824Z,7.10
2022-08-14T23:58:40.294Z,6.90
